Station: Edithburgh

  Atmospheric Gas Attenuation - ITU Rec 676-11   --------------- db/100km ---------------
Date Time Temp RH % AH g/m3 Dew Point Wind Direction Speed kph Gust kph Barometer mB Rainfall Since 9am 24GHz 47GHz 76GHz 122GHz 134GHz 241GHz
15 00:10 12 85 9.06 9.5 28 32 1017.5 7 20.7 27.4 42.8 112.4 107.4 369.6
15 00:00 12 83 8.85 9.3 35 37 1017.3 7 20.2 27.0 41.9 110.1 104.5 359.4
14 23:50 12 83 8.85 9.3 30 33 1017.4 7 20.2 27.0 41.9 110.1 104.5 359.5
14 23:40 12 85 9.06 9.5 32 33 1017.4 7 20.7 27.4 42.8 112.4 107.4 369.6
14 23:30 12.1 86 9.22 9.8 30 39 1017.3 7 21.0 27.6 43.4 114.1 109.4 376.8
14 23:20 12 85 9.06 9.5 32 35 1017.5 7 20.7 27.4 42.8 112.4 107.4 369.6
14 23:10 12.1 86 9.22 9.8 33 37 1017.5 7 21.0 27.6 43.4 114.1 109.4 376.9
14 23:00 12.1 86 9.22 9.8 32 43 1017.3 7 21.0 27.6 43.4 114.1 109.4 376.8
14 22:50 12.2 86 9.28 9.9 28 39 1017.2 7 21.1 27.7 43.6 114.6 110.1 379.2
14 22:40 12 87 9.27 10 35 41 1017.1 7 21.1 27.7 43.7 114.8 110.2 379.7
14 22:30 12.4 88 9.62 10.5 30 39 1017 7 21.8 28.2 44.9 118.1 114.5 394.7
14 22:20 12.2 87 9.39 10.2 32 41 1016.9 7 21.4 27.8 44.1 115.8 111.6 384.5
14 22:10 12.5 89 9.79 10.7 26 30 1016.9 7 22.2 28.4 45.6 119.9 116.8 402.5
14 22:00 12.4 87 9.51 10.4 33 39 1016.4 7 21.6 28.0 44.4 116.8 112.9 389.2
14 21:50 12.4 89 9.73 10.6 32 39 1016.3 7 22.1 28.3 45.4 119.3 116.0 399.9
14 21:40 12.5 89 9.79 10.7 28 37 1016.3 7 22.2 28.4 45.6 119.8 116.7 402.3
14 21:30 12.8 88 9.86 10.9 28 37 1016.3 7 22.3 28.4 45.7 120.2 117.2 404.2
14 21:20 12.7 89 9.91 10.9 26 37 1016.2 7 22.5 28.5 46.0 120.9 118.1 407.2
14 21:10 12.8 89 9.97 11 30 33 1016.2 7 22.6 28.6 46.2 121.4 118.8 409.6
14 21:00 12.8 89 9.97 11 28 35 1016.2 7 22.6 28.6 46.2 121.4 118.8 409.6
14 20:50 12.9 90 10.14 11.3 32 37 1016.2 7 22.9 28.9 46.8 123.2 121.0 417.4
14 20:40 12.9 90 10.14 11.3 30 35 1016 7 22.9 28.9 46.8 123.2 121.0 417.4
14 20:30 13 90 10.21 11.4 32 41 1016 7 23.1 28.9 47.1 123.8 121.8 420.3
14 20:20 13.1 91 10.38 11.6 30 35 1015.9 7 23.4 29.2 47.7 125.6 124.1 428.2
14 20:10 13.2 90 10.33 11.6 32 39 1015.7 7 23.3 29.1 47.5 124.8 123.2 425.0
14 20:00 13 91 10.32 11.6 32 41 1015.6 7 23.3 29.1 47.5 125.0 123.4 425.6
14 19:50 13.3 92 10.63 12 24 33 1015.5 7 24.0 29.6 48.7 128.1 127.3 439.4
14 19:40 13.2 93 10.68 12.1 35 41 1015.1 7 24.1 29.7 48.9 128.8 128.1 442.3
14 19:30 13.4 94 10.93 12.5 32 43 1015 7 24.6 30.0 49.9 131.4 131.4 453.7
14 19:20 13.6 94 11.06 12.6 28 33 1014.8 7 24.9 30.2 50.3 132.6 132.9 459.0
14 19:10 13.8 95 11.32 13 28 32 1014.7 7 25.4 30.6 51.4 135.3 136.3 470.9
14 19:00 14.1 95 11.53 13.3 24 28 1014.6 7 25.9 30.8 52.1 137.2 138.8 479.7
14 18:50 14.2 95 11.6 13.4 17 19 1014.5 7 26.0 30.9 52.3 137.8 139.6 482.6
14 18:40 14.3 95 11.67 13.5 20 24 1014.4 6 26.1 31.0 52.6 138.5 140.4 485.4
14 18:30 14.4 94 11.62 13.4 17 24 1014.2 5.2 26.0 30.9 52.3 137.7 139.5 482.2
14 18:20 14.7 94 11.83 13.7 15 17 1014.1 4.2 26.5 31.1 53.0 139.6 142.0 490.9
14 18:10 14.7 92 11.58 13.4 9 9 1014 3 25.9 30.7 51.9 136.6 138.3 478.2
14 18:00 15 92 11.8 13.7 6 9 1013.8 2.4 26.4 31.0 52.6 138.7 141.0 487.4
14 17:50 14.9 91 11.6 13.4 0 0 1013.6 2.4 26.0 30.6 51.8 136.5 138.2 477.8
14 17:40 14.9 91 11.6 13.4 0 0 1013.5 2.4 26.0 30.6 51.8 136.5 138.2 477.8
14 17:30 14.7 91 11.46 13.2 6 7 1013.3 2.4 25.7 30.4 51.3 135.2 136.5 471.9
14 17:20 14.8 92 11.65 13.5 7 7 1013.3 2.4 26.1 30.7 52.1 137.2 139.1 480.9
14 17:10 14.8 92 11.65 13.5 6 7 1013.1 2.4 26.1 30.7 52.1 137.2 139.1 480.8
14 17:00 15 92 11.8 13.7 6 7 1013 2.4 26.4 30.9 52.6 138.6 140.9 487.1
14 16:50 15 92 11.8 13.7 6 6 1012.9 2.4 26.4 30.9 52.6 138.6 140.9 487.1
14 16:40 15 92 11.8 13.8 6 7 1012.8 2.4 26.4 30.9 52.6 138.5 140.9 487.0
14 16:30 14.9 92 11.73 13.6 9 11 1012.7 2.4 26.2 30.8 52.3 137.9 140.0 484.1
14 16:20 15 92 11.8 13.7 6 7 1012.7 2 26.4 30.9 52.6 138.5 140.8 487.0
14 16:10 14.9 92 11.73 13.6 7 9 1012.6 1 26.2 30.8 52.3 137.9 140.0 484.0
14 16:00 15.1 90 11.61 13.5 6 9 1012.6 0.6 26.0 30.5 51.7 136.1 137.9 476.7
14 15:50 15 88 11.28 13 0 0 1012.6 0.6 25.3 30.0 50.3 132.4 133.3 460.8
14 15:40 15.3 87 11.36 13.1 7 9 1012.5 0.6 25.4 30.0 50.4 132.8 134.0 463.0
14 15:30 15.9 88 11.92 13.9 7 7 1012.5 0.4 26.6 30.8 52.5 138.3 140.9 487.2
14 15:20 15.9 86 11.65 13.5 4 6 1012.4 0.4 26.0 30.3 51.3 135.1 137.0 473.7
14 15:10 16 84 11.44 13.3 7 7 1012.3 0.4 25.6 29.9 50.3 132.5 133.8 462.7
14 15:00 16.2 84 11.58 13.5 7 9 1012.3 0.4 25.8 30.1 50.8 133.8 135.5 468.4
14 14:50 16.3 83 11.51 13.4 6 7 1012.1 0.4 25.7 29.9 50.4 132.8 134.3 464.2
14 14:40 16.7 81 11.51 13.4 9 9 1012.1 0.4 25.7 29.8 50.2 132.1 133.6 461.8
14 14:30 16.8 77 11.01 12.7 13 17 1011.8 0.2 24.6 28.9 48.0 126.3 126.4 436.9
14 14:20 17.3 75 11.05 12.8 15 17 1012 0.2 24.6 28.8 47.8 125.9 126.2 436.1
14 14:10 18.1 70 10.81 12.7 17 20 1011.9 0.2 24.1 28.1 46.4 122.0 121.6 420.3
14 14:00 18.3 72 11.26 13.2 17 24 1011.9 0.2 25.0 28.8 48.1 126.6 127.4 440.4
14 13:50 18.3 71 11.1 13.1 15 20 1011.7 0.2 24.7 28.6 47.4 124.8 125.2 432.8
14 13:40 18.6 72 11.46 13.6 17 20 1011.8 0.2 25.4 29.1 48.7 128.3 129.6 448.2
14 13:30 17.9 74 11.3 13.2 20 28 1011.8 0.2 25.1 29.0 48.5 127.7 128.6 444.6
14 13:20 18.6 78 12.41 14.8 19 24 1011.9 0.2 27.5 30.7 52.7 139.0 142.7 494.1
14 13:10 18.2 78 12.12 14.3 24 28 1011.9 0.2 26.9 30.3 51.8 136.4 139.4 482.4
14 13:00 17.7 75 11.31 13.2 20 30 1011.9 0.2 25.2 29.1 48.7 128.2 129.1 446.2
14 12:50 17.7 81 12.22 14.4 24 26 1011.9 0.2 27.1 30.7 52.5 138.5 141.7 490.5
14 12:40 17 82 11.86 13.9 15 19 1012 0.2 26.4 30.3 51.5 135.6 138.0 477.2
14 12:30 16.8 82 11.72 13.7 19 26 1012.1 0.2 26.1 30.1 51.0 134.3 136.3 471.5
14 12:20 17 82 11.86 13.9 22 26 1012.1 0.2 26.4 30.3 51.5 135.6 138.0 477.2
14 12:10 16.8 83 11.87 14 11 13 1012.2 0.2 26.4 30.4 51.6 136.1 138.5 479.0
14 12:00 16.8 83 11.87 13.9 20 22 1012.2 0.2 26.4 30.4 51.6 136.1 138.5 479.0
14 11:50 18 84 12.9 15.2 20 24 1012.2 0.2 28.5 31.8 55.3 145.8 150.9 522.5
14 11:40 17.4 85 12.6 14.8 24 28 1012.2 0.2 27.9 31.4 54.4 143.5 147.8 511.5
14 11:30 17.3 88 12.96 15.3 20 24 1012.3 0.2 28.7 32.1 56.1 147.9 153.2 530.4
14 11:20 16.5 88 12.36 14.5 26 30 1012.5 0.2 27.5 31.4 54.0 142.4 146.1 505.5
14 11:10 16.7 88 12.51 14.8 24 28 1012.5 0.2 27.8 31.6 54.5 143.8 147.9 511.7
14 11:00 16.6 91 12.85 15.1 26 33 1012.6 0.2 28.5 32.2 56.1 148.0 153.0 529.7
14 10:50 16.7 93 13.22 15.5 22 28 1012.7 0.2 29.3 32.8 57.7 152.2 158.3 548.1
14 10:40 16.1 92 12.61 14.8 30 32 1012.7 0.2 28.1 32.0 55.4 146.1 150.5 520.9
14 10:30 16.2 93 12.82 15.1 22 28 1012.8 0.2 28.5 32.3 56.3 148.4 153.4 531.1
14 10:20 15.9 94 12.73 14.9 22 26 1012.9 0.2 28.3 32.3 56.1 147.9 152.7 528.6
14 10:10 15.6 92 12.23 14.4 15 17 1013 0.2 27.3 31.5 54.1 142.6 146.0 505.0
14 10:00 15.6 92 12.23 14.4 20 22 1013.1 0 27.3 31.5 54.1 142.6 146.0 505.1
14 09:50 15.6 92 12.23 14.4 19 20 1013 0 27.3 31.5 54.1 142.6 146.0 505.0
14 09:40 15.7 93 12.44 14.5 19 20 1013.1 0 27.7 31.8 55.0 144.9 148.9 515.1
14 09:30 15.4 94 12.35 14.4 19 19 1012.8 0 27.5 31.8 54.7 144.3 148.1 512.4
14 09:20 15.1 94 12.13 14.1 22 26 1012.9 0 27.1 31.5 54.0 142.3 145.5 503.2
14 09:10 15.1 94 12.13 14.1 19 20 1013 0 27.1 31.5 54.0 142.3 145.5 503.2
14 09:00 14.9 94 11.98 13.9 19 22 1012.9 0 26.8 31.3 53.4 140.9 143.7 496.8
14 08:50 14.9 94 11.98 13.9 19 19 1012.8 12.4 26.8 31.3 53.4 140.9 143.7 496.8
14 08:40 14.6 94 11.76 13.6 13 15 1012.6 12.4 26.3 31.0 52.7 138.8 141.0 487.5
14 08:30 14.5 92 11.44 13.3 13 15 1012.6 12.4 25.6 30.5 51.3 135.2 136.5 471.9
14 08:20 14.7 94 11.83 13.7 13 17 1012.8 12.4 26.5 31.1 52.9 139.4 141.8 490.5
14 08:10 14.6 92 11.51 13.4 17 20 1012.9 12.4 25.8 30.6 51.6 135.9 137.4 474.9
14 08:00 14.6 93 11.64 13.5 15 19 1013 12.4 26.1 30.8 52.1 137.4 139.3 481.5
14 07:50 14.5 92 11.44 13.3 15 19 1013.1 12.4 25.6 30.5 51.3 135.2 136.6 472.1
14 07:40 14.4 92 11.37 13.2 15 17 1013.2 12.4 25.5 30.4 51.1 134.6 135.8 469.2

Last Refresh: 15-Jun-2024 00:19:41

Bureau of Meteorology